createdAt,value
2019-03-12T00:00:22.571Z,0.00
2019-03-12T00:01:22.578Z,0.00
2019-03-12T00:03:15.484Z,0.00
2019-03-12T00:04:15.486Z,0.00
2019-03-12T00:06:08.388Z,0.00
2019-03-12T00:07:08.390Z,0.00
2019-03-12T00:09:01.290Z,0.00
2019-03-12T00:10:01.298Z,0.00
2019-03-12T00:11:54.203Z,0.00
2019-03-12T00:12:54.204Z,0.00
2019-03-12T00:14:47.190Z,0.00
2019-03-12T00:15:47.109Z,0.00
2019-03-12T00:17:40.015Z,0.00
2019-03-12T00:18:40.017Z,0.00
2019-03-12T00:20:32.966Z,0.00
2019-03-12T00:21:32.918Z,0.00
2019-03-12T00:23:25.845Z,0.00
2019-03-12T00:24:25.853Z,0.00
2019-03-12T00:26:18.751Z,0.00
2019-03-12T00:27:18.753Z,0.00
2019-03-12T00:29:11.648Z,0.00
2019-03-12T00:30:11.662Z,0.00
2019-03-12T00:32:04.563Z,0.00
2019-03-12T00:33:04.564Z,0.00
2019-03-12T00:34:57.464Z,0.00
2019-03-12T00:35:57.469Z,0.00
2019-03-12T00:37:50.370Z,0.00
2019-03-12T00:38:50.374Z,0.00
2019-03-12T00:40:43.267Z,0.00
2019-03-12T00:41:43.277Z,0.00
2019-03-12T00:43:36.178Z,0.00
2019-03-12T00:44:36.181Z,0.00
2019-03-12T00:46:29.082Z,0.00
2019-03-12T00:47:29.084Z,0.00
2019-03-12T00:49:21.981Z,0.00
2019-03-12T00:50:21.991Z,0.00
2019-03-12T00:52:14.897Z,0.00
2019-03-12T00:53:14.895Z,0.00
2019-03-12T00:55:07.789Z,0.00
2019-03-12T00:56:07.799Z,0.00
2019-03-12T00:58:00.705Z,0.00
2019-03-12T00:59:00.706Z,0.00
2019-03-12T01:00:53.603Z,0.00
2019-03-12T01:01:53.673Z,0.00
2019-03-12T01:03:46.514Z,0.00
2019-03-12T01:04:46.516Z,0.00
2019-03-12T01:06:39.424Z,0.00
2019-03-12T01:07:39.423Z,0.00
2019-03-12T01:09:32.316Z,0.00
2019-03-12T01:10:32.329Z,0.00
2019-03-12T01:12:25.229Z,0.00
2019-03-12T01:13:25.231Z,0.00
2019-03-12T01:15:18.123Z,0.00
2019-03-12T01:16:18.133Z,0.00
2019-03-12T01:18:13.704Z,0.00
2019-03-12T01:19:11.040Z,0.00
2019-03-12T01:21:04.006Z,0.00
2019-03-12T01:22:03.940Z,0.00
2019-03-12T01:23:56.843Z,0.00
2019-03-12T01:24:56.848Z,0.00
2019-03-12T01:26:49.747Z,0.00
2019-03-12T01:27:49.749Z,0.00
2019-03-12T01:29:42.643Z,0.00
2019-03-12T01:30:42.654Z,0.00
2019-03-12T01:32:35.551Z,0.00
2019-03-12T01:33:35.554Z,0.00
2019-03-12T01:35:28.448Z,0.00
2019-03-12T01:36:28.456Z,0.00
2019-03-12T01:38:21.361Z,0.00
2019-03-12T01:39:21.359Z,0.00
2019-03-12T01:41:14.253Z,0.00
2019-03-12T01:42:14.261Z,0.00
2019-03-12T01:44:07.221Z,0.00
2019-03-12T01:45:07.166Z,0.00
2019-03-12T01:47:00.068Z,0.00
2019-03-12T01:48:00.076Z,0.00
2019-03-12T01:49:52.963Z,0.00
2019-03-12T01:50:52.971Z,0.00
2019-03-12T01:52:45.874Z,0.00
2019-03-12T01:53:45.875Z,0.00
2019-03-12T01:55:38.770Z,0.00
2019-03-12T01:56:38.779Z,0.00
2019-03-12T01:58:31.691Z,0.00
2019-03-12T01:59:31.682Z,0.00
2019-03-12T02:01:24.576Z,0.00
2019-03-12T02:02:24.586Z,0.00
2019-03-12T02:04:17.487Z,0.00
2019-03-12T02:05:17.488Z,0.00
2019-03-12T02:07:10.391Z,0.00
2019-03-12T02:08:10.393Z,0.00
2019-03-12T02:10:03.289Z,0.00
2019-03-12T02:11:03.294Z,0.00
2019-03-12T02:12:56.193Z,0.00
2019-03-12T02:13:56.194Z,0.00
2019-03-12T02:15:49.092Z,0.00
2019-03-12T02:16:49.100Z,0.00
2019-03-12T02:18:41.999Z,0.00
2019-03-12T02:19:41.999Z,0.00
2019-03-12T02:21:34.893Z,0.00
2019-03-12T02:22:34.900Z,0.00
2019-03-12T02:24:27.803Z,0.00
2019-03-12T02:25:27.804Z,0.00
2019-03-12T02:27:20.704Z,0.00
2019-03-12T02:28:20.709Z,0.00
2019-03-12T02:30:13.605Z,0.00
2019-03-12T02:31:13.611Z,0.00
2019-03-12T02:33:06.517Z,0.00
2019-03-12T02:34:06.514Z,0.00
2019-03-12T02:35:59.413Z,0.00
2019-03-12T02:36:59.477Z,0.00
2019-03-12T02:38:52.319Z,0.00
2019-03-12T02:39:52.328Z,0.00
2019-03-12T02:41:45.215Z,0.00
2019-03-12T02:42:45.222Z,0.00
2019-03-12T02:44:38.133Z,0.00
2019-03-12T02:45:38.126Z,0.00
2019-03-12T02:47:31.520Z,0.00
2019-03-12T02:48:31.526Z,0.00
2019-03-12T02:50:24.417Z,0.00
2019-03-12T02:51:24.423Z,0.00
2019-03-12T02:53:17.326Z,0.00
2019-03-12T02:54:17.328Z,0.00
2019-03-12T02:56:10.221Z,0.00
2019-03-12T02:57:10.236Z,0.00
2019-03-12T02:59:03.131Z,0.00
2019-03-12T03:00:03.128Z,0.00
2019-03-12T03:01:56.025Z,0.00
2019-03-12T03:02:56.029Z,0.00
2019-03-12T03:04:48.931Z,0.00
2019-03-12T03:05:48.932Z,0.00
2019-03-12T03:07:41.831Z,0.00
2019-03-12T03:08:41.834Z,0.00
2019-03-12T03:10:34.766Z,0.00
2019-03-12T03:11:34.733Z,0.00
2019-03-12T03:13:27.634Z,0.00
2019-03-12T03:14:27.634Z,0.00
2019-03-12T03:16:23.858Z,0.00
2019-03-12T03:17:20.535Z,0.00
2019-03-12T03:19:13.435Z,0.00
2019-03-12T03:20:13.439Z,0.00
2019-03-12T03:22:06.333Z,0.00
2019-03-12T03:23:06.336Z,0.00
2019-03-12T03:24:59.237Z,0.00
2019-03-12T03:25:59.239Z,0.00
2019-03-12T03:27:52.136Z,0.00
2019-03-12T03:28:52.138Z,0.00
2019-03-12T03:30:45.050Z,0.00
2019-03-12T03:31:45.038Z,0.00
2019-03-12T03:33:37.947Z,0.00
2019-03-12T03:34:37.943Z,0.00
2019-03-12T03:36:30.832Z,0.00
2019-03-12T03:37:30.842Z,0.00
2019-03-12T03:39:23.740Z,0.00
2019-03-12T03:40:23.800Z,0.00
2019-03-12T03:42:16.638Z,0.00
2019-03-12T03:43:16.669Z,0.00
2019-03-12T03:45:09.549Z,0.00
2019-03-12T03:46:09.547Z,0.00
2019-03-12T03:48:02.447Z,0.00
2019-03-12T03:49:02.444Z,0.00
2019-03-12T03:50:55.343Z,0.00
2019-03-12T03:51:55.376Z,0.00
2019-03-12T03:53:48.258Z,0.00
2019-03-12T03:54:48.283Z,0.00
2019-03-12T03:56:41.143Z,0.00
2019-03-12T03:57:41.164Z,0.00
2019-03-12T03:59:34.063Z,0.00
2019-03-12T04:00:34.059Z,0.00
2019-03-12T04:02:26.946Z,0.00
2019-03-12T04:03:26.955Z,0.00
2019-03-12T04:05:19.998Z,0.00
2019-03-12T04:06:19.855Z,0.00
2019-03-12T04:08:12.753Z,0.00
2019-03-12T04:09:12.758Z,0.00
2019-03-12T04:11:05.648Z,0.00
2019-03-12T04:12:05.659Z,0.00
2019-03-12T04:13:58.558Z,0.00
2019-03-12T04:14:58.559Z,0.00
2019-03-12T04:16:51.452Z,0.00
2019-03-12T04:17:51.468Z,0.00
2019-03-12T04:19:44.359Z,0.00
2019-03-12T04:20:44.363Z,0.00
2019-03-12T04:22:37.290Z,0.00
2019-03-12T04:23:37.301Z,0.00
2019-03-12T04:25:30.157Z,0.00
2019-03-12T04:26:30.158Z,0.00
2019-03-12T04:28:23.060Z,0.00
2019-03-12T04:29:23.064Z,0.00
2019-03-12T04:31:15.956Z,0.00
2019-03-12T04:32:16.033Z,0.00
2019-03-12T04:34:08.864Z,0.00
2019-03-12T04:35:08.881Z,0.00
2019-03-12T04:37:01.760Z,0.00
2019-03-12T04:38:01.768Z,0.00
2019-03-12T04:39:54.667Z,0.00
2019-03-12T04:40:54.668Z,0.00
2019-03-12T04:42:47.566Z,0.00
2019-03-12T04:43:47.567Z,0.00
2019-03-12T04:45:40.550Z,0.00
2019-03-12T04:46:40.557Z,0.00
2019-03-12T04:48:33.453Z,0.00
2019-03-12T04:49:33.453Z,0.00
2019-03-12T04:51:26.389Z,0.00
2019-03-12T04:52:26.352Z,0.00
2019-03-12T04:54:19.254Z,0.00
2019-03-12T04:55:19.260Z,0.00
2019-03-12T04:57:12.149Z,0.00
2019-03-12T04:58:12.157Z,0.00
2019-03-12T05:00:05.063Z,0.00
2019-03-12T05:01:05.062Z,0.00
2019-03-12T05:02:57.956Z,0.00
2019-03-12T05:03:57.963Z,0.00
2019-03-12T05:05:50.865Z,0.00
2019-03-12T05:06:50.875Z,0.00
2019-03-12T05:08:43.770Z,0.00
2019-03-12T05:09:43.771Z,0.00
2019-03-12T05:11:36.666Z,0.00
2019-03-12T05:12:36.681Z,0.00
2019-03-12T05:14:29.577Z,0.00
2019-03-12T05:15:29.576Z,0.00
2019-03-12T05:17:22.470Z,0.00
2019-03-12T05:18:22.477Z,0.00
2019-03-12T05:20:15.395Z,0.00
2019-03-12T05:21:15.380Z,0.00
2019-03-12T05:23:08.280Z,0.00
2019-03-12T05:24:08.289Z,0.00
2019-03-12T05:26:01.190Z,0.00
2019-03-12T05:27:01.192Z,0.00
2019-03-12T05:28:54.096Z,0.00
2019-03-12T05:29:54.097Z,0.00
2019-03-12T05:31:46.994Z,0.00
2019-03-12T05:32:46.998Z,0.00
2019-03-12T05:34:39.899Z,0.00
2019-03-12T05:35:39.919Z,0.00
2019-03-12T05:37:32.798Z,0.00
2019-03-12T05:38:32.809Z,0.00
2019-03-12T05:40:25.710Z,0.00
2019-03-12T05:41:25.710Z,0.00
2019-03-12T05:43:18.602Z,5.63
2019-03-12T05:44:18.613Z,5.63
2019-03-12T05:46:11.512Z,5.63
2019-03-12T05:47:11.531Z,5.63
2019-03-12T05:49:04.415Z,11.25
2019-03-12T05:50:04.417Z,11.25
2019-03-12T05:51:57.305Z,11.25
2019-03-12T05:52:57.323Z,11.25
2019-03-12T05:54:50.220Z,16.88
2019-03-12T05:55:50.224Z,16.88
2019-03-12T05:57:43.121Z,16.88
2019-03-12T05:58:43.125Z,16.88
2019-03-12T06:00:36.027Z,22.50
2019-03-12T06:01:36.027Z,22.50
2019-03-12T06:03:28.931Z,22.50
2019-03-12T06:04:28.928Z,28.13
2019-03-12T06:06:21.833Z,28.13
2019-03-12T06:07:21.850Z,28.13
2019-03-12T06:09:14.739Z,33.75
2019-03-12T06:10:14.735Z,33.75
2019-03-12T06:12:07.626Z,45.00
2019-03-12T06:13:07.638Z,50.63
2019-03-12T06:15:00.537Z,56.25
2019-03-12T06:16:00.537Z,61.88
2019-03-12T06:17:53.436Z,67.50
2019-03-12T06:18:53.440Z,67.50
2019-03-12T06:20:46.344Z,67.50
2019-03-12T06:21:46.343Z,67.50
2019-03-12T06:23:39.236Z,67.50
2019-03-12T06:24:39.244Z,73.13
2019-03-12T06:26:32.144Z,84.38
2019-03-12T06:27:32.147Z,84.38
2019-03-12T06:29:25.050Z,90.00
2019-03-12T06:30:26.052Z,90.00
2019-03-12T06:32:17.971Z,84.38
2019-03-12T06:33:17.957Z,84.38
2019-03-12T06:35:10.865Z,84.38
2019-03-12T06:36:10.943Z,84.38
2019-03-12T06:38:03.761Z,84.38
2019-03-12T06:39:03.769Z,84.38
2019-03-12T06:40:56.671Z,90.00
2019-03-12T06:41:56.675Z,90.00
2019-03-12T06:43:49.565Z,95.63
2019-03-12T06:44:49.575Z,95.63
2019-03-12T06:46:42.478Z,101.25
2019-03-12T06:47:42.479Z,101.25
2019-03-12T06:49:35.389Z,106.88
2019-03-12T06:50:35.387Z,112.50
2019-03-12T06:52:28.280Z,118.13
2019-03-12T06:53:28.291Z,123.75
2019-03-12T06:55:21.684Z,157.50
2019-03-12T06:56:21.686Z,196.88
2019-03-12T06:58:14.578Z,236.25
2019-03-12T06:59:14.590Z,230.63
2019-03-12T07:01:08.327Z,225.00
2019-03-12T07:02:07.491Z,236.25
2019-03-12T07:04:00.389Z,253.13
2019-03-12T07:05:00.408Z,258.75
2019-03-12T07:06:53.306Z,264.38
2019-03-12T07:07:53.309Z,253.13
2019-03-12T07:09:46.300Z,230.63
2019-03-12T07:10:46.218Z,219.38
2019-03-12T07:12:39.118Z,202.50
2019-03-12T07:13:39.125Z,196.88
2019-03-12T07:15:32.031Z,185.63
2019-03-12T07:16:32.033Z,185.63
2019-03-12T07:18:24.933Z,185.63
2019-03-12T07:19:24.939Z,191.25
2019-03-12T07:21:17.841Z,208.13
2019-03-12T07:22:17.846Z,219.38
2019-03-12T07:24:13.139Z,236.25
2019-03-12T07:25:10.752Z,241.88
2019-03-12T07:27:03.674Z,241.88
2019-03-12T07:28:03.656Z,247.50
2019-03-12T07:29:56.569Z,247.50
2019-03-12T07:30:56.562Z,253.13
2019-03-12T07:32:49.459Z,258.75
2019-03-12T07:33:49.470Z,258.75
2019-03-12T07:35:42.377Z,258.75
2019-03-12T07:36:42.385Z,258.75
2019-03-12T07:38:35.285Z,264.38
2019-03-12T07:39:35.290Z,264.38
2019-03-12T07:41:32.446Z,292.50
2019-03-12T07:42:28.196Z,309.38
2019-03-12T07:44:21.097Z,331.88
2019-03-12T07:45:21.108Z,331.88
2019-03-12T07:47:14.029Z,326.25
2019-03-12T07:48:14.033Z,320.63
2019-03-12T07:50:06.940Z,315.00
2019-03-12T07:51:06.942Z,309.38
2019-03-12T07:52:59.843Z,298.13
2019-03-12T07:54:00.041Z,298.13
2019-03-12T07:55:52.760Z,258.75
2019-03-12T07:56:52.762Z,258.75
2019-03-12T07:58:45.660Z,230.63
2019-03-12T07:59:45.672Z,219.38
2019-03-12T08:01:38.581Z,196.88
2019-03-12T08:02:38.583Z,191.25
2019-03-12T08:04:31.481Z,191.25
2019-03-12T08:05:31.491Z,191.25
2019-03-12T08:07:24.402Z,196.88
2019-03-12T08:08:24.405Z,208.13
2019-03-12T08:10:17.313Z,208.13
2019-03-12T08:11:17.316Z,202.50
2019-03-12T08:13:10.218Z,185.63
2019-03-12T08:14:10.223Z,185.63
2019-03-12T08:16:03.136Z,202.50
2019-03-12T08:17:03.138Z,208.13
2019-03-12T08:18:56.034Z,208.13
2019-03-12T08:19:56.064Z,213.75
2019-03-12T08:21:49.880Z,219.38
2019-03-12T08:22:48.953Z,219.38
2019-03-12T08:24:41.854Z,225.00
2019-03-12T08:25:43.920Z,230.63
2019-03-12T08:27:34.773Z,241.88
2019-03-12T08:28:34.775Z,241.88
2019-03-12T08:30:27.682Z,247.50
2019-03-12T08:31:27.774Z,253.13
2019-03-12T08:33:20.583Z,253.13
2019-03-12T08:34:20.595Z,258.75
2019-03-12T08:36:13.500Z,281.25
2019-03-12T08:37:13.505Z,298.13
2019-03-12T08:39:06.401Z,315.00
2019-03-12T08:40:06.414Z,326.25
2019-03-12T08:41:59.317Z,343.13
2019-03-12T08:42:59.323Z,354.38
2019-03-12T08:44:52.227Z,376.88
2019-03-12T08:45:52.235Z,388.13
2019-03-12T08:47:45.143Z,399.38
2019-03-12T08:48:45.150Z,405.00
2019-03-12T08:50:38.057Z,376.88
2019-03-12T08:51:38.058Z,365.63
2019-03-12T08:53:30.967Z,354.38
2019-03-12T08:54:30.972Z,360.00
2019-03-12T08:56:23.882Z,337.50
2019-03-12T08:57:23.884Z,315.00
2019-03-12T08:59:16.786Z,270.00
2019-03-12T09:00:16.798Z,264.38
2019-03-12T09:02:09.708Z,275.63
2019-03-12T09:03:09.715Z,281.25
2019-03-12T09:05:02.616Z,292.50
2019-03-12T09:06:02.625Z,286.88
2019-03-12T09:07:55.531Z,303.75
2019-03-12T09:08:55.535Z,309.38
2019-03-12T09:10:48.439Z,320.63
2019-03-12T09:11:48.448Z,331.88
2019-03-12T09:13:41.361Z,326.25
2019-03-12T09:14:41.363Z,331.88
2019-03-12T09:16:34.277Z,326.25
2019-03-12T09:17:34.277Z,320.63
2019-03-12T09:19:27.186Z,315.00
2019-03-12T09:20:27.189Z,303.75
2019-03-12T09:22:20.103Z,292.50
2019-03-12T09:23:20.103Z,286.88
2019-03-12T09:25:13.006Z,286.88
2019-03-12T09:26:13.018Z,298.13
2019-03-12T09:28:05.929Z,320.63
2019-03-12T09:29:05.929Z,331.88
2019-03-12T09:30:58.830Z,343.13
2019-03-12T09:31:58.841Z,360.00
2019-03-12T09:33:51.750Z,376.88
2019-03-12T09:34:51.756Z,382.50
2019-03-12T09:36:44.706Z,376.88
2019-03-12T09:37:44.666Z,371.25
2019-03-12T09:39:37.575Z,376.88
2019-03-12T09:40:37.582Z,376.88
2019-03-12T09:42:30.490Z,388.13
2019-03-12T09:43:30.494Z,399.38
2019-03-12T09:45:23.398Z,421.88
2019-03-12T09:46:23.411Z,433.13
2019-03-12T09:48:16.320Z,444.38
2019-03-12T09:49:16.324Z,450.00
2019-03-12T09:51:09.226Z,455.63
2019-03-12T09:52:09.240Z,461.25
2019-03-12T09:54:02.151Z,478.13
2019-03-12T09:55:04.763Z,483.75
2019-03-12T09:56:55.066Z,495.00
2019-03-12T09:57:55.070Z,489.38
2019-03-12T09:59:47.974Z,483.75
2019-03-12T10:00:47.987Z,489.38
2019-03-12T10:02:40.907Z,495.00
2019-03-12T10:03:40.906Z,495.00
2019-03-12T10:05:33.806Z,489.38
2019-03-12T10:06:33.821Z,483.75
2019-03-12T10:08:26.736Z,478.13
2019-03-12T10:09:26.738Z,478.13
2019-03-12T10:11:19.642Z,478.13
2019-03-12T10:12:19.657Z,483.75
2019-03-12T10:14:12.570Z,461.25
2019-03-12T10:15:12.580Z,450.00
2019-03-12T10:17:05.506Z,438.75
2019-03-12T10:18:05.498Z,438.75
2019-03-12T10:19:58.407Z,455.63
2019-03-12T10:20:58.420Z,455.63
2019-03-12T10:22:51.335Z,466.88
2019-03-12T10:23:51.342Z,478.13
2019-03-12T10:25:44.247Z,483.75
2019-03-12T10:26:44.259Z,483.75
2019-03-12T10:28:37.178Z,472.50
2019-03-12T10:29:37.183Z,466.88
2019-03-12T10:31:30.089Z,461.25
2019-03-12T10:32:30.102Z,455.63
2019-03-12T10:34:29.634Z,444.38
2019-03-12T10:35:23.018Z,438.75
2019-03-12T10:37:16.679Z,438.75
2019-03-12T10:38:15.936Z,438.75
2019-03-12T10:40:08.843Z,438.75
2019-03-12T10:41:08.857Z,438.75
2019-03-12T10:43:02.766Z,433.13
2019-03-12T10:44:02.770Z,427.50
2019-03-12T10:45:55.677Z,416.25
2019-03-12T10:46:55.689Z,410.63
2019-03-12T10:48:48.604Z,405.00
2019-03-12T10:49:48.611Z,405.00
2019-03-12T10:51:41.519Z,421.88
2019-03-12T10:52:41.526Z,421.88
2019-03-12T10:54:34.440Z,410.63
2019-03-12T10:55:34.450Z,399.38
2019-03-12T10:57:27.362Z,388.13
2019-03-12T10:58:27.366Z,376.88
2019-03-12T11:00:20.764Z,343.13
2019-03-12T11:01:20.778Z,331.88
2019-03-12T11:03:13.692Z,320.63
2019-03-12T11:04:13.696Z,331.88
2019-03-12T11:06:06.602Z,354.38
2019-03-12T11:07:15.908Z,365.63
2019-03-12T11:08:59.530Z,365.63
2019-03-12T11:09:59.535Z,365.63
2019-03-12T11:11:52.437Z,382.50
2019-03-12T11:12:52.486Z,382.50
2019-03-12T11:14:45.363Z,365.63
2019-03-12T11:15:45.371Z,343.13
2019-03-12T11:17:48.724Z,343.13
2019-03-12T11:18:38.286Z,365.63
2019-03-12T11:20:31.190Z,410.63
2019-03-12T11:21:31.203Z,438.75
2019-03-12T11:23:24.113Z,478.13
2019-03-12T11:24:24.121Z,489.38
2019-03-12T11:26:17.022Z,500.63
2019-03-12T11:27:17.035Z,500.63
2019-03-12T11:29:09.950Z,483.75
2019-03-12T11:30:09.953Z,472.50
2019-03-12T11:32:02.857Z,461.25
2019-03-12T11:33:02.869Z,455.63
2019-03-12T11:34:55.783Z,455.63
2019-03-12T11:35:55.893Z,450.00
2019-03-12T11:37:49.044Z,455.63
2019-03-12T11:38:48.742Z,466.88
2019-03-12T11:40:41.610Z,472.50
2019-03-12T11:41:41.648Z,472.50
2019-03-12T11:43:34.566Z,472.50
2019-03-12T11:44:34.543Z,472.50
2019-03-12T11:46:27.448Z,489.38
2019-03-12T11:47:27.463Z,489.38
2019-03-12T11:49:20.407Z,495.00
2019-03-12T11:50:20.703Z,495.00
2019-03-12T11:52:13.288Z,500.63
2019-03-12T11:53:13.303Z,495.00
2019-03-12T11:55:06.214Z,495.00
2019-03-12T11:56:06.225Z,489.38
2019-03-12T11:57:59.137Z,489.38
2019-03-12T11:58:59.144Z,495.00
2019-03-12T12:00:52.049Z,495.00
2019-03-12T12:01:52.063Z,495.00
2019-03-12T12:03:44.973Z,500.63
2019-03-12T12:04:44.983Z,506.25
2019-03-12T12:06:42.553Z,506.25
2019-03-12T12:07:38.233Z,500.63
2019-03-12T12:09:30.818Z,489.38
2019-03-12T12:10:30.824Z,478.13
2019-03-12T12:12:23.737Z,483.75
2019-03-12T12:13:23.750Z,489.38
2019-03-12T12:15:16.703Z,483.75
2019-03-12T12:16:16.710Z,478.13
2019-03-12T12:18:09.627Z,478.13
2019-03-12T12:19:09.633Z,478.13
2019-03-12T12:21:02.543Z,478.13
2019-03-12T12:22:02.556Z,478.13
2019-03-12T12:23:55.472Z,478.13
2019-03-12T12:24:55.480Z,466.88
2019-03-12T12:26:48.396Z,466.88
2019-03-12T12:27:48.409Z,466.88
2019-03-12T12:29:41.323Z,472.50
2019-03-12T12:30:41.331Z,472.50
2019-03-12T12:32:34.239Z,466.88
2019-03-12T12:33:34.251Z,472.50
2019-03-12T12:35:27.170Z,472.50
2019-03-12T12:36:27.270Z,466.88
2019-03-12T12:38:20.089Z,472.50
2019-03-12T12:39:20.305Z,472.50
2019-03-12T12:41:13.007Z,472.50
2019-03-12T12:42:13.024Z,472.50
2019-03-12T12:44:05.946Z,455.63
2019-03-12T12:45:05.964Z,438.75
2019-03-12T12:46:58.860Z,433.13
2019-03-12T12:47:58.874Z,438.75
2019-03-12T12:49:51.790Z,461.25
2019-03-12T12:51:02.364Z,461.25
2019-03-12T12:52:45.741Z,466.88
2019-03-12T12:53:45.720Z,455.63
2019-03-12T12:55:38.640Z,461.25
2019-03-12T12:56:38.640Z,466.88
2019-03-12T12:58:31.559Z,478.13
2019-03-12T12:59:31.565Z,483.75
2019-03-12T13:01:24.473Z,478.13
2019-03-12T13:02:24.487Z,478.13
2019-03-12T13:04:17.546Z,478.13
2019-03-12T13:05:17.552Z,478.13
2019-03-12T13:07:10.462Z,472.50
2019-03-12T13:08:10.474Z,466.88
2019-03-12T13:10:03.417Z,438.75
2019-03-12T13:11:03.425Z,421.88
2019-03-12T13:12:56.376Z,405.00
2019-03-12T13:13:56.349Z,399.38
2019-03-12T13:15:49.284Z,388.13
2019-03-12T13:16:49.273Z,388.13
2019-03-12T13:18:42.199Z,405.00
2019-03-12T13:19:42.350Z,416.25
2019-03-12T13:21:35.101Z,416.25
2019-03-12T13:22:35.117Z,416.25
2019-03-12T13:24:28.026Z,382.50
2019-03-12T13:25:28.034Z,354.38
2019-03-12T13:27:21.502Z,337.50
2019-03-12T13:28:21.454Z,348.75
2019-03-12T13:30:14.369Z,348.75
2019-03-12T13:31:14.464Z,343.13
2019-03-12T13:33:07.279Z,354.38
2019-03-12T13:34:07.294Z,371.25
2019-03-12T13:36:00.702Z,382.50
2019-03-12T13:37:00.711Z,382.50
2019-03-12T13:38:53.659Z,388.13
2019-03-12T13:39:53.632Z,399.38
2019-03-12T13:41:46.540Z,393.75
2019-03-12T13:42:46.554Z,388.13
2019-03-12T13:44:39.469Z,382.50
2019-03-12T13:45:39.491Z,371.25
2019-03-12T13:47:32.416Z,365.63
2019-03-12T13:48:32.405Z,354.38
2019-03-12T13:50:25.386Z,331.88
2019-03-12T13:51:25.344Z,326.25
2019-03-12T13:53:18.245Z,337.50
2019-03-12T13:54:18.242Z,337.50
2019-03-12T13:56:11.171Z,331.88
2019-03-12T13:57:11.163Z,337.50
2019-03-12T13:59:04.077Z,337.50
2019-03-12T14:00:04.085Z,326.25
2019-03-12T14:01:56.991Z,343.13
2019-03-12T14:02:57.005Z,337.50
2019-03-12T14:04:49.946Z,337.50
2019-03-12T14:05:49.951Z,343.13
2019-03-12T14:07:42.857Z,331.88
2019-03-12T14:08:42.870Z,343.13
2019-03-12T14:10:35.786Z,326.25
2019-03-12T14:11:35.792Z,320.63
2019-03-12T14:13:28.704Z,326.25
2019-03-12T14:14:28.713Z,326.25
2019-03-12T14:16:21.628Z,320.63
2019-03-12T14:17:21.635Z,309.38
2019-03-12T14:19:14.549Z,320.63
2019-03-12T14:20:14.557Z,326.25
2019-03-12T14:22:07.467Z,320.63
2019-03-12T14:23:07.479Z,303.75
2019-03-12T14:25:00.393Z,292.50
2019-03-12T14:26:00.401Z,292.50
2019-03-12T14:27:53.306Z,292.50
2019-03-12T14:28:53.320Z,292.50
2019-03-12T14:30:46.238Z,286.88
2019-03-12T14:31:46.244Z,281.25
2019-03-12T14:33:39.151Z,281.25
2019-03-12T14:34:39.168Z,292.50
2019-03-12T14:36:32.081Z,292.50
2019-03-12T14:37:32.092Z,292.50
2019-03-12T14:39:25.002Z,275.63
2019-03-12T14:40:25.008Z,270.00
2019-03-12T14:42:17.950Z,253.13
2019-03-12T14:43:17.962Z,241.88
2019-03-12T14:45:10.875Z,241.88
2019-03-12T14:46:10.883Z,247.50
2019-03-12T14:48:03.790Z,253.13
2019-03-12T14:49:03.805Z,258.75
2019-03-12T14:50:56.714Z,264.38
2019-03-12T14:51:56.722Z,264.38
2019-03-12T14:53:49.626Z,270.00
2019-03-12T14:54:49.642Z,264.38
2019-03-12T14:56:42.558Z,264.38
2019-03-12T14:57:42.561Z,258.75
2019-03-12T14:59:35.482Z,247.50
2019-03-12T15:00:35.485Z,236.25
2019-03-12T15:02:28.393Z,225.00
2019-03-12T15:03:28.405Z,213.75
2019-03-12T15:05:21.322Z,196.88
2019-03-12T15:06:21.324Z,191.25
2019-03-12T15:08:14.230Z,163.13
2019-03-12T15:09:14.244Z,146.25
2019-03-12T15:11:07.155Z,129.38
2019-03-12T15:12:07.167Z,129.38
2019-03-12T15:14:00.069Z,123.75
2019-03-12T15:15:00.347Z,112.50
2019-03-12T15:16:52.992Z,101.25
2019-03-12T15:17:53.092Z,101.25
2019-03-12T15:19:45.911Z,106.88
2019-03-12T15:20:45.917Z,101.25
2019-03-12T15:22:38.822Z,95.63
2019-03-12T15:23:38.836Z,95.63
2019-03-12T15:25:31.748Z,95.63
2019-03-12T15:26:31.754Z,95.63
2019-03-12T15:28:24.749Z,106.88
2019-03-12T15:29:24.673Z,112.50
2019-03-12T15:31:18.077Z,112.50
2019-03-12T15:32:18.085Z,106.88
2019-03-12T15:34:10.989Z,101.25
2019-03-12T15:35:11.003Z,95.63
2019-03-12T15:37:03.914Z,95.63
2019-03-12T15:38:03.920Z,95.63
2019-03-12T15:39:56.831Z,90.00
2019-03-12T15:40:56.834Z,84.38
2019-03-12T15:42:49.738Z,84.38
2019-03-12T15:43:49.752Z,84.38
2019-03-12T15:45:42.664Z,84.38
2019-03-12T15:46:42.669Z,84.38
2019-03-12T15:48:35.573Z,90.00
2019-03-12T15:49:37.864Z,95.63
2019-03-12T15:51:28.496Z,95.63
2019-03-12T15:52:28.502Z,95.63
2019-03-12T15:54:21.421Z,90.00
2019-03-12T15:55:21.437Z,84.38
2019-03-12T15:57:14.577Z,84.38
2019-03-12T15:58:14.637Z,90.00
2019-03-12T16:00:07.498Z,95.63
2019-03-12T16:01:07.501Z,90.00
2019-03-12T16:03:00.612Z,90.00
2019-03-12T16:04:00.416Z,90.00
2019-03-12T16:05:53.331Z,84.38
2019-03-12T16:07:01.240Z,78.75
2019-03-12T16:08:46.236Z,73.13
2019-03-12T16:09:46.250Z,73.13
2019-03-12T16:11:39.158Z,73.13
2019-03-12T16:12:39.163Z,73.13
2019-03-12T16:14:32.066Z,61.88
2019-03-12T16:15:32.140Z,73.13
2019-03-12T16:17:24.994Z,56.25
2019-03-12T16:18:24.998Z,61.88
2019-03-12T16:20:17.911Z,67.50
2019-03-12T16:21:17.915Z,67.50
2019-03-12T16:23:10.822Z,61.88
2019-03-12T16:24:10.834Z,67.50
2019-03-12T16:26:03.768Z,67.50
2019-03-12T16:27:03.768Z,61.88
2019-03-12T16:28:56.668Z,56.25
2019-03-12T16:29:56.679Z,56.25
2019-03-12T16:31:49.593Z,56.25
2019-03-12T16:32:49.598Z,50.63
2019-03-12T16:34:42.497Z,50.63
2019-03-12T16:35:42.513Z,45.00
2019-03-12T16:37:35.422Z,39.38
2019-03-12T16:38:35.428Z,39.38
2019-03-12T16:40:28.349Z,33.75
2019-03-12T16:41:28.350Z,33.75
2019-03-12T16:43:22.261Z,33.75
2019-03-12T16:44:21.261Z,33.75
2019-03-12T16:46:14.240Z,28.13
2019-03-12T16:47:14.174Z,28.13
2019-03-12T16:49:07.078Z,22.50
2019-03-12T16:50:07.094Z,16.88
2019-03-12T16:52:00.001Z,16.88
2019-03-12T16:53:00.010Z,11.25
2019-03-12T16:54:52.942Z,11.25
2019-03-12T16:55:52.923Z,11.25
2019-03-12T16:57:45.838Z,11.25
2019-03-12T16:58:45.846Z,11.25
2019-03-12T17:00:38.751Z,11.25
2019-03-12T17:01:38.755Z,11.25
2019-03-12T17:03:31.664Z,11.25
2019-03-12T17:04:31.677Z,5.63
2019-03-12T17:06:24.630Z,5.63
2019-03-12T17:07:24.596Z,5.63
2019-03-12T17:09:17.494Z,5.63
2019-03-12T17:10:17.553Z,5.63
2019-03-12T17:12:10.417Z,5.63
2019-03-12T17:13:10.425Z,5.63
2019-03-12T17:15:03.341Z,5.63
2019-03-12T17:16:03.339Z,5.63
2019-03-12T17:17:56.251Z,5.63
2019-03-12T17:18:56.250Z,5.63
2019-03-12T17:20:49.160Z,5.63
2019-03-12T17:21:49.166Z,5.63
2019-03-12T17:23:42.078Z,5.63
2019-03-12T17:24:42.094Z,5.63
2019-03-12T17:26:35.001Z,0.00
2019-03-12T17:27:35.007Z,0.00
2019-03-12T17:29:27.911Z,0.00
2019-03-12T17:30:27.958Z,0.00
2019-03-12T17:32:20.830Z,0.00
2019-03-12T17:33:20.837Z,0.00
2019-03-12T17:35:13.737Z,0.00
2019-03-12T17:36:13.750Z,0.00
2019-03-12T17:38:06.660Z,0.00
2019-03-12T17:39:06.669Z,0.00
2019-03-12T17:40:59.576Z,0.00
2019-03-12T17:41:59.579Z,0.00
2019-03-12T17:43:52.482Z,0.00
2019-03-12T17:44:52.491Z,0.00
2019-03-12T17:46:45.905Z,0.00
2019-03-12T17:47:45.911Z,0.00
2019-03-12T17:49:38.901Z,0.00
2019-03-12T17:50:38.917Z,0.00
2019-03-12T17:52:31.829Z,0.00
2019-03-12T17:53:31.834Z,0.00
2019-03-12T17:55:24.740Z,0.00
2019-03-12T17:56:24.755Z,0.00
2019-03-12T17:58:17.679Z,0.00
2019-03-12T17:59:17.687Z,0.00
2019-03-12T18:01:10.600Z,0.00
2019-03-12T18:02:10.600Z,0.00
2019-03-12T18:04:03.499Z,0.00
2019-03-12T18:05:03.546Z,0.00
2019-03-12T18:06:56.915Z,0.00
2019-03-12T18:07:56.924Z,0.00
2019-03-12T18:09:49.823Z,0.00
2019-03-12T18:10:49.836Z,0.00
2019-03-12T18:12:42.744Z,0.00
2019-03-12T18:13:42.761Z,0.00
2019-03-12T18:15:36.645Z,0.00
2019-03-12T18:16:41.366Z,0.00
2019-03-12T18:18:29.574Z,0.00
2019-03-12T18:19:29.580Z,0.00
2019-03-12T18:21:22.489Z,0.00
2019-03-12T18:22:22.550Z,0.00
2019-03-12T18:24:15.792Z,0.00
2019-03-12T18:25:15.513Z,0.00
2019-03-12T18:27:08.356Z,0.00
2019-03-12T18:28:08.365Z,0.00
2019-03-12T18:30:01.267Z,0.00